Time;durP1;ratioP1;P1;durP2;ratioP2;P2;SDS_P1;SDS_P2;PMS_P1;PMS_P2;Temp;Humidity;BMP_temperature;BMP_pressure;BME280_temperature;BME280_humidity;BME280_pressure;Samples;Min_cycle;Max_cycle;Signal;HPM_P1;HPM_P2
2023/06/06 00:01:05;;;;;;;3.80;2.90;;;;;;;;;;6083282;23;20369;-92
2023/06/06 00:03:31;;;;;;;4.37;2.97;;;;;;;;;;6085408;23;20382;-94
2023/06/06 00:05:59;;;;;;;3.80;3.00;;;;;;;;;;6083694;23;20395;-93
2023/06/06 00:08:28;;;;;;;4.00;3.60;;;;;;;;;;6085196;23;20842;-93
2023/06/06 00:10:54;;;;;;;3.97;3.20;;;;;;;;;;6086606;23;20402;-94
2023/06/06 00:13:20;;;;;;;3.80;3.03;;;;;;;;;;6084994;23;20394;-95
2023/06/06 00:15:46;;;;;;;3.60;3.07;;;;;;;;;;6084693;23;20478;-94
2023/06/06 00:18:12;;;;;;;3.47;3.00;;;;;;;;;;6085943;23;20398;-95
2023/06/06 00:20:39;;;;;;;3.40;2.73;;;;;;;;;;6082346;23;20373;-93
2023/06/06 00:23:06;;;;;;;3.00;2.70;;;;;;;;;;6085822;23;20387;-95
2023/06/06 00:25:32;;;;;;;3.77;3.47;;;;;;;;;;6085233;23;20386;-92
2023/06/06 00:27:58;;;;;;;4.83;3.43;;;;;;;;;;6084924;23;20439;-92
2023/06/06 00:30:24;;;;;;;3.63;3.27;;;;;;;;;;6084811;23;20393;-94
2023/06/06 00:32:50;;;;;;;4.00;3.47;;;;;;;;;;6085209;23;20487;-93
2023/06/06 00:35:16;;;;;;;3.70;3.30;;;;;;;;;;6087235;23;20369;-94
2023/06/06 00:37:42;;;;;;;4.00;3.40;;;;;;;;;;6087287;23;20413;-94
2023/06/06 00:40:09;;;;;;;3.60;2.70;;;;;;;;;;6086121;23;20373;-92
2023/06/06 00:42:35;;;;;;;6.60;2.80;;;;;;;;;;6110946;23;20421;-95
2023/06/06 00:45:01;;;;;;;3.23;2.90;;;;;;;;;;6084786;23;20382;-92
2023/06/06 00:47:27;;;;;;;3.20;2.90;;;;;;;;;;6087903;23;20392;-92
2023/06/06 00:49:53;;;;;;;3.80;3.10;;;;;;;;;;6086010;23;20417;-93
2023/06/06 00:52:20;;;;;;;3.53;3.03;;;;;;;;;;6088337;23;20814;-93
2023/06/06 00:54:46;;;;;;;4.90;3.60;;;;;;;;;;6052995;23;20411;-94
2023/06/06 00:57:12;;;;;;;4.70;3.13;;;;;;;;;;6028781;23;20439;-94
2023/06/06 00:59:38;;;;;;;3.97;3.57;;;;;;;;;;6028879;23;20383;-92
2023/06/06 01:02:09;;;;;;;2.97;2.67;;;;;;;;;;6027037;23;20445;-95
2023/06/06 01:04:40;;;;;;;3.80;2.80;;;;;;;;;;6052359;23;20487;-93
2023/06/06 01:07:07;;;;;;;5.07;2.80;;;;;;;;;;6029289;23;20372;-95
2023/06/06 01:09:34;;;;;;;3.27;2.83;;;;;;;;;;6029768;23;20877;-95
2023/06/06 01:12:09;;;;;;;6.43;3.00;;;;;;;;;;6027493;23;20482;-94
2023/06/06 01:14:45;;;;;;;3.70;3.13;;;;;;;;;;6029353;23;20411;-95
2023/06/06 01:17:11;;;;;;;3.77;3.40;;;;;;;;;;6049960;23;21011;-94
2023/06/06 01:19:37;;;;;;;5.20;3.27;;;;;;;;;;6026179;23;20458;-95
2023/06/06 01:22:04;;;;;;;3.73;3.20;;;;;;;;;;6024962;23;20952;-95
2023/06/06 01:24:30;;;;;;;4.20;3.40;;;;;;;;;;6026912;23;21118;-93
2023/06/06 01:26:56;;;;;;;3.40;2.67;;;;;;;;;;6084543;23;20382;-95
2023/06/06 01:29:22;;;;;;;6.93;3.90;;;;;;;;;;6089139;23;20456;-94
2023/06/06 01:32:07;;;;;;;3.67;2.70;;;;;;;;;;6087257;23;20437;-93
2023/06/06 01:34:34;;;;;;;3.30;2.80;;;;;;;;;;6110428;23;20735;-96
2023/06/06 01:37:01;;;;;;;5.57;3.77;;;;;;;;;;6085704;23;20412;-92
2023/06/06 01:39:27;;;;;;;3.40;2.80;;;;;;;;;;6086073;23;20410;-94
2023/06/06 01:41:55;;;;;;;4.73;3.47;;;;;;;;;;6086395;23;20382;-96
2023/06/06 01:44:21;;;;;;;6.93;5.40;;;;;;;;;;6086139;23;20382;-94
2023/06/06 01:46:47;;;;;;;5.07;3.00;;;;;;;;;;6085745;23;20361;-94
2023/06/06 01:49:13;;;;;;;5.83;3.30;;;;;;;;;;6083941;23;20362;-92
2023/06/06 01:51:39;;;;;;;4.20;3.80;;;;;;;;;;6084445;23;20461;-93
2023/06/06 01:54:05;;;;;;;3.77;2.50;;;;;;;;;;6083312;23;20389;-92
2023/06/06 01:56:33;;;;;;;3.73;2.67;;;;;;;;;;6083897;23;20397;-95
2023/06/06 01:58:59;;;;;;;3.90;3.00;;;;;;;;;;6089467;23;20918;-95
2023/06/06 02:01:26;;;;;;;3.47;3.17;;;;;;;;;;6084108;23;20386;-95
2023/06/06 02:03:52;;;;;;;5.53;3.00;;;;;;;;;;6085222;23;20389;-94
2023/06/06 02:06:19;;;;;;;4.57;2.80;;;;;;;;;;6084978;23;20777;-94
2023/06/06 02:08:47;;;;;;;4.10;3.27;;;;;;;;;;6085135;23;20401;-94
2023/06/06 02:11:13;;;;;;;4.87;3.40;;;;;;;;;;6084595;23;20792;-94
2023/06/06 02:13:39;;;;;;;3.43;3.03;;;;;;;;;;6084527;23;20912;-95
2023/06/06 02:16:05;;;;;;;3.77;3.10;;;;;;;;;;6085830;23;20424;-95
2023/06/06 02:18:31;;;;;;;3.33;2.70;;;;;;;;;;6084845;23;20388;-96
2023/06/06 02:20:57;;;;;;;4.60;3.50;;;;;;;;;;6086159;23;20393;-95
2023/06/06 02:23:23;;;;;;;5.20;3.60;;;;;;;;;;6087403;23;20948;-95
2023/06/06 02:25:50;;;;;;;5.07;3.30;;;;;;;;;;6086647;23;20953;-95
2023/06/06 02:28:16;;;;;;;3.90;3.50;;;;;;;;;;6111042;23;20402;-95
2023/06/06 02:30:45;;;;;;;4.63;2.30;;;;;;;;;;6086785;23;20381;-95
2023/06/06 02:33:11;;;;;;;5.00;4.00;;;;;;;;;;6090347;23;20428;-96
2023/06/06 02:35:37;;;;;;;4.30;3.33;;;;;;;;;;6085815;23;20382;-96
2023/06/06 02:38:03;;;;;;;5.13;3.73;;;;;;;;;;6086996;23;20382;-93
2023/06/06 02:40:29;;;;;;;4.13;2.87;;;;;;;;;;6088601;23;20416;-94
2023/06/06 02:42:55;;;;;;;5.00;3.43;;;;;;;;;;6088630;23;20408;-94
2023/06/06 02:45:22;;;;;;;4.33;3.57;;;;;;;;;;6090787;23;20398;-92
2023/06/06 02:47:48;;;;;;;5.10;4.00;;;;;;;;;;6090502;23;20881;-95
2023/06/06 02:50:14;;;;;;;4.70;3.20;;;;;;;;;;6089538;23;20497;-95
2023/06/06 02:52:40;;;;;;;3.90;3.10;;;;;;;;;;6089674;23;20437;-95
2023/06/06 02:55:07;;;;;;;4.47;3.50;;;;;;;;;;6091418;23;20730;-95
2023/06/06 02:57:33;;;;;;;5.33;3.47;;;;;;;;;;6088779;23;20388;-95
2023/06/06 02:59:59;;;;;;;4.20;3.63;;;;;;;;;;6091151;23;20476;-95
2023/06/06 03:02:25;;;;;;;4.13;3.30;;;;;;;;;;6089759;23;20490;-95
2023/06/06 03:04:52;;;;;;;3.17;2.87;;;;;;;;;;6093078;23;20392;-93
2023/06/06 03:07:20;;;;;;;3.70;3.20;;;;;;;;;;6114000;23;20418;-95
2023/06/06 03:09:46;;;;;;;4.70;4.20;;;;;;;;;;6113078;23;20413;-92
2023/06/06 03:12:12;;;;;;;4.20;3.73;;;;;;;;;;6088242;23;20440;-94
2023/06/06 03:14:38;;;;;;;4.73;3.70;;;;;;;;;;6092075;23;20445;-94
2023/06/06 03:17:04;;;;;;;3.80;3.23;;;;;;;;;;6089732;23;20420;-92
2023/06/06 03:19:31;;;;;;;3.90;3.40;;;;;;;;;;6087493;23;20366;-94
2023/06/06 03:21:59;;;;;;;5.17;3.67;;;;;;;;;;6088368;23;20396;-94
2023/06/06 03:24:25;;;;;;;4.37;3.40;;;;;;;;;;6088642;23;20386;-94
2023/06/06 03:26:53;;;;;;;5.20;4.23;;;;;;;;;;6086199;23;20393;-92
2023/06/06 03:29:19;;;;;;;5.40;3.47;;;;;;;;;;6085912;23;20902;-92
2023/06/06 03:31:48;;;;;;;4.70;3.90;;;;;;;;;;6084705;23;20417;-93
2023/06/06 03:34:14;;;;;;;4.53;3.63;;;;;;;;;;6089449;23;20398;-94
2023/06/06 03:36:40;;;;;;;4.67;3.47;;;;;;;;;;6084551;23;20378;-94
2023/06/06 03:39:06;;;;;;;4.20;3.77;;;;;;;;;;6083734;23;20398;-92
2023/06/06 03:41:32;;;;;;;5.50;3.70;;;;;;;;;;6084235;23;20393;-93
2023/06/06 03:44:01;;;;;;;5.13;3.30;;;;;;;;;;6085899;23;20393;-92
2023/06/06 03:46:28;;;;;;;4.80;3.83;;;;;;;;;;6084025;23;20404;-92
2023/06/06 03:48:54;;;;;;;5.70;3.57;;;;;;;;;;6086184;23;20394;-94
2023/06/06 03:51:20;;;;;;;5.27;3.37;;;;;;;;;;6083303;23;20425;-94
2023/06/06 03:53:46;;;;;;;5.20;3.83;;;;;;;;;;6084906;23;20378;-93
2023/06/06 03:56:12;;;;;;;4.40;3.83;;;;;;;;;;6077959;23;20399;-93
2023/06/06 03:58:38;;;;;;;4.47;4.00;;;;;;;;;;6054756;23;20411;-93
2023/06/06 04:01:04;;;;;;;4.63;3.60;;;;;;;;;;6051792;23;20394;-94
2023/06/06 04:03:36;;;;;;;4.50;3.80;;;;;;;;;;6079996;23;20435;-93
2023/06/06 04:06:04;;;;;;;4.13;3.73;;;;;;;;;;6080106;23;20646;-93
2023/06/06 04:08:30;;;;;;;4.40;3.67;;;;;;;;;;6052218;23;20478;-94
2023/06/06 04:10:56;;;;;;;4.80;3.80;;;;;;;;;;6054179;23;20393;-94
2023/06/06 04:13:22;;;;;;;4.23;3.60;;;;;;;;;;6053466;23;20383;-94
2023/06/06 04:15:49;;;;;;;4.33;3.93;;;;;;;;;;6077454;23;20398;-92
2023/06/06 04:18:15;;;;;;;4.63;4.17;;;;;;;;;;6052870;23;20840;-93
2023/06/06 04:20:44;;;;;;;6.40;3.50;;;;;;;;;;6051487;23;20773;-93
2023/06/06 04:23:10;;;;;;;4.30;3.70;;;;;;;;;;6073918;23;20478;-94
2023/06/06 04:25:36;;;;;;;5.20;3.93;;;;;;;;;;6052643;23;20510;-94
2023/06/06 04:28:02;;;;;;;4.20;3.73;;;;;;;;;;6076294;23;20468;-94
2023/06/06 04:30:29;;;;;;;4.57;3.90;;;;;;;;;;6080871;23;20798;-94
2023/06/06 04:32:56;;;;;;;4.33;3.60;;;;;;;;;;6080948;23;20429;-93
2023/06/06 04:35:22;;;;;;;4.30;3.90;;;;;;;;;;6083097;23;20500;-94
2023/06/06 04:37:50;;;;;;;5.67;3.60;;;;;;;;;;6105915;23;20393;-94
2023/06/06 04:40:16;;;;;;;5.97;4.20;;;;;;;;;;6083350;23;20392;-93
2023/06/06 04:42:42;;;;;;;5.00;3.93;;;;;;;;;;6081956;23;21020;-93
2023/06/06 04:45:09;;;;;;;6.03;3.77;;;;;;;;;;6081261;23;20501;-94
2023/06/06 04:47:35;;;;;;;7.10;3.87;;;;;;;;;;6080119;23;20393;-93
2023/06/06 04:50:02;;;;;;;5.40;3.80;;;;;;;;;;6083990;23;20385;-93
2023/06/06 04:52:28;;;;;;;4.93;4.17;;;;;;;;;;6081568;23;20429;-94
2023/06/06 04:54:56;;;;;;;5.27;3.97;;;;;;;;;;6083881;23;20394;-94
2023/06/06 04:57:23;;;;;;;5.03;3.43;;;;;;;;;;6081562;23;20858;-94
2023/06/06 04:59:52;;;;;;;4.33;3.93;;;;;;;;;;6080689;23;20369;-93
2023/06/06 05:02:21;;;;;;;5.37;3.77;;;;;;;;;;6082431;23;20377;-94
2023/06/06 05:04:53;;;;;;;4.30;3.90;;;;;;;;;;6110598;23;20774;-93
2023/06/06 05:07:23;;;;;;;5.23;3.73;;;;;;;;;;6107353;23;20366;-92
2023/06/06 05:09:49;;;;;;;5.47;4.30;;;;;;;;;;6087598;23;20476;-92
2023/06/06 05:12:15;;;;;;;6.73;3.83;;;;;;;;;;6081333;23;20928;-93
2023/06/06 05:14:41;;;;;;;6.63;4.77;;;;;;;;;;6081057;23;20397;-93
2023/06/06 05:17:07;;;;;;;5.03;4.20;;;;;;;;;;6081587;23;20405;-93
2023/06/06 05:19:34;;;;;;;4.43;3.47;;;;;;;;;;6084460;23;20417;-93
2023/06/06 05:22:00;;;;;;;5.20;4.07;;;;;;;;;;6106910;23;20369;-94
2023/06/06 05:24:25;;;;;;;5.00;4.33;;;;;;;;;;6083105;23;20378;-93
2023/06/06 05:26:51;;;;;;;5.93;4.83;;;;;;;;;;6082765;23;20370;-94
2023/06/06 05:29:17;;;;;;;4.27;3.87;;;;;;;;;;6081638;23;20362;-92
2023/06/06 05:31:43;;;;;;;5.30;4.37;;;;;;;;;;6081272;23;20429;-93
2023/06/06 05:34:09;;;;;;;6.60;3.90;;;;;;;;;;6082238;23;20413;-92
2023/06/06 05:36:45;;;;;;;7.03;4.00;;;;;;;;;;6083642;23;20378;-93
2023/06/06 05:39:13;;;;;;;4.53;3.83;;;;;;;;;;6084055;23;20461;-93
2023/06/06 05:41:39;;;;;;;9.90;5.03;;;;;;;;;;6082385;23;20905;-94
2023/06/06 05:44:05;;;;;;;10.40;4.07;;;;;;;;;;6083086;23;20394;-94
2023/06/06 05:46:30;;;;;;;4.80;4.10;;;;;;;;;;6083926;23;20789;-94
2023/06/06 05:48:57;;;;;;;4.33;3.77;;;;;;;;;;6084467;23;20446;-94
2023/06/06 05:51:23;;;;;;;4.20;3.53;;;;;;;;;;6085204;23;20461;-94
2023/06/06 05:53:49;;;;;;;6.00;4.00;;;;;;;;;;6108239;23;20350;-93
2023/06/06 05:56:18;;;;;;;7.70;4.17;;;;;;;;;;6085870;23;20401;-94
2023/06/06 05:58:47;;;;;;;4.83;3.60;;;;;;;;;;6086637;23;20960;-94
2023/06/06 06:01:13;;;;;;;5.93;4.27;;;;;;;;;;6083548;23;20386;-94
2023/06/06 06:03:42;;;;;;;5.80;3.93;;;;;;;;;;6081045;23;20948;-93
2023/06/06 06:06:08;;;;;;;4.77;4.20;;;;;;;;;;6082099;23;20469;-93
2023/06/06 06:08:35;;;;;;;7.13;4.53;;;;;;;;;;6085343;23;20386;-93
2023/06/06 06:11:01;;;;;;;7.07;5.20;;;;;;;;;;6038418;23;20381;-94
2023/06/06 06:13:28;;;;;;;9.70;4.80;;;;;;;;;;6086155;23;20382;-93
2023/06/06 06:15:54;;;;;;;5.80;3.90;;;;;;;;;;6087525;23;20464;-94
2023/06/06 06:18:20;;;;;;;4.40;4.00;;;;;;;;;;6088040;23;20378;-94
2023/06/06 06:20:46;;;;;;;5.23;4.27;;;;;;;;;;6086755;23;20376;-94
2023/06/06 06:23:12;;;;;;;6.80;4.10;;;;;;;;;;6084651;23;20380;-93
2023/06/06 06:25:38;;;;;;;6.10;4.30;;;;;;;;;;6087955;23;20770;-92
2023/06/06 06:28:04;;;;;;;6.10;3.80;;;;;;;;;;6084738;23;20413;-94
2023/06/06 06:30:30;;;;;;;5.33;4.43;;;;;;;;;;6084570;23;20437;-93
2023/06/06 06:32:56;;;;;;;9.00;3.60;;;;;;;;;;6083694;23;20429;-93
2023/06/06 06:35:22;;;;;;;9.23;3.73;;;;;;;;;;6083788;23;20385;-91
2023/06/06 06:37:49;;;;;;;4.83;3.90;;;;;;;;;;6084651;23;20423;-91
2023/06/06 06:40:15;;;;;;;6.23;3.93;;;;;;;;;;6085138;23;20710;-92
2023/06/06 06:42:42;;;;;;;6.63;4.00;;;;;;;;;;6086362;23;20390;-92
2023/06/06 06:45:11;;;;;;;8.00;3.87;;;;;;;;;;6109220;23;20402;-91
2023/06/06 06:47:37;;;;;;;7.40;4.73;;;;;;;;;;6080059;23;20450;-94
2023/06/06 06:50:04;;;;;;;4.50;4.10;;;;;;;;;;6082233;23;20384;-90
2023/06/06 06:52:33;;;;;;;5.03;3.73;;;;;;;;;;6080931;23;20436;-90
2023/06/06 06:55:00;;;;;;;7.07;4.10;;;;;;;;;;6084438;23;20394;-89
2023/06/06 06:57:29;;;;;;;8.77;4.63;;;;;;;;;;6082940;23;20766;-92
2023/06/06 07:00:14;;;;;;;5.00;4.20;;;;;;;;;;6083935;23;20389;-92
2023/06/06 07:02:42;;;;;;;5.33;4.50;;;;;;;;;;6084509;23;20425;-91
2023/06/06 07:05:09;;;;;;;4.37;3.70;;;;;;;;;;6085944;23;20409;-92
2023/06/06 07:07:35;;;;;;;6.93;4.53;;;;;;;;;;6085779;23;20385;-92
2023/06/06 07:10:01;;;;;;;7.13;4.00;;;;;;;;;;6084616;23;21190;-90
2023/06/06 07:12:27;;;;;;;4.27;3.73;;;;;;;;;;6083139;23;20437;-90
2023/06/06 07:14:56;;;;;;;4.47;3.30;;;;;;;;;;6083818;23;20394;-94
2023/06/06 07:17:26;;;;;;;4.13;3.73;;;;;;;;;;6086018;23;20449;-92
2023/06/06 07:19:52;;;;;;;5.63;4.20;;;;;;;;;;6083748;23;20480;-92
2023/06/06 07:22:18;;;;;;;6.50;3.93;;;;;;;;;;6082793;23;20916;-93
2023/06/06 07:24:45;;;;;;;4.20;3.60;;;;;;;;;;6108369;23;20382;-92
2023/06/06 07:27:13;;;;;;;5.23;3.63;;;;;;;;;;6086096;23;20425;-93
2023/06/06 07:29:39;;;;;;;4.93;3.97;;;;;;;;;;6084567;23;20394;-91
2023/06/06 07:32:05;;;;;;;4.80;4.30;;;;;;;;;;6085121;23;20996;-92
2023/06/06 07:34:31;;;;;;;4.20;3.40;;;;;;;;;;6085790;23;20429;-92
2023/06/06 07:36:59;;;;;;;4.30;3.60;;;;;;;;;;6087016;23;20449;-92
2023/06/06 07:39:25;;;;;;;4.20;3.80;;;;;;;;;;6084639;23;20405;-93
2023/06/06 07:41:51;;;;;;;4.83;4.33;;;;;;;;;;6084058;23;20381;-92
2023/06/06 07:44:18;;;;;;;4.33;3.47;;;;;;;;;;6082536;23;20390;-91
2023/06/06 07:46:44;;;;;;;4.57;3.30;;;;;;;;;;6082308;23;20394;-92
2023/06/06 07:49:10;;;;;;;9.70;4.63;;;;;;;;;;6083843;23;20373;-92
2023/06/06 07:51:36;;;;;;;5.70;3.60;;;;;;;;;;6085491;23;20461;-91
2023/06/06 07:54:02;;;;;;;6.30;4.03;;;;;;;;;;6083073;23;20452;-92
2023/06/06 07:56:30;;;;;;;5.00;4.33;;;;;;;;;;6084957;23;20878;-91
2023/06/06 07:58:57;;;;;;;4.40;3.70;;;;;;;;;;6084620;23;20429;-92
2023/06/06 08:01:23;;;;;;;5.20;3.60;;;;;;;;;;6085534;23;20448;-92
2023/06/06 08:03:50;;;;;;;5.70;3.33;;;;;;;;;;6079877;23;20433;-91
2023/06/06 08:06:19;;;;;;;4.77;3.40;;;;;;;;;;6085418;23;20874;-92
2023/06/06 08:08:46;;;;;;;5.07;4.07;;;;;;;;;;6084312;23;20398;-93
2023/06/06 08:11:13;;;;;;;7.20;3.93;;;;;;;;;;6084067;23;20414;-92
2023/06/06 08:13:39;;;;;;;5.03;4.40;;;;;;;;;;6084180;23;20378;-93
2023/06/06 08:16:05;;;;;;;5.23;3.77;;;;;;;;;;6085994;23;20408;-92
2023/06/06 08:18:31;;;;;;;5.57;3.93;;;;;;;;;;6086277;23;20377;-93
2023/06/06 08:20:57;;;;;;;4.60;3.80;;;;;;;;;;6087637;23;20397;-92
2023/06/06 08:23:23;;;;;;;5.70;3.63;;;;;;;;;;6085809;23;20398;-93
2023/06/06 08:25:55;;;;;;;4.40;3.73;;;;;;;;;;6090802;23;20401;-92
2023/06/06 08:28:21;;;;;;;4.80;4.13;;;;;;;;;;6112446;23;20875;-91
2023/06/06 08:30:47;;;;;;;5.30;3.80;;;;;;;;;;6084936;23;20390;-92
2023/06/06 08:33:13;;;;;;;4.80;4.03;;;;;;;;;;6083737;23;20420;-91
2023/06/06 08:35:39;;;;;;;4.80;4.10;;;;;;;;;;6085476;23;20374;-91
2023/06/06 08:38:06;;;;;;;4.63;3.90;;;;;;;;;;6085683;23;20390;-92
2023/06/06 08:40:32;;;;;;;8.13;4.50;;;;;;;;;;6085876;23;20386;-91
2023/06/06 08:42:58;;;;;;;6.00;4.40;;;;;;;;;;6085516;23;20446;-93
2023/06/06 08:45:24;;;;;;;7.30;4.87;;;;;;;;;;6087693;23;20400;-93
2023/06/06 08:47:50;;;;;;;4.67;4.20;;;;;;;;;;6087232;23;20890;-94
2023/06/06 08:50:16;;;;;;;4.80;4.30;;;;;;;;;;6085246;23;20389;-91
2023/06/06 08:52:42;;;;;;;10.00;4.40;;;;;;;;;;6088345;23;20441;-92
2023/06/06 08:55:09;;;;;;;4.73;4.23;;;;;;;;;;6087065;23;20390;-92
2023/06/06 08:57:41;;;;;;;6.00;3.90;;;;;;;;;;6090493;23;20505;-92
2023/06/06 09:00:11;;;;;;;6.20;3.93;;;;;;;;;;6086010;23;20385;-92
2023/06/06 09:02:40;;;;;;;5.40;4.57;;;;;;;;;;6086580;23;20770;-92
2023/06/06 09:05:06;;;;;;;4.53;4.13;;;;;;;;;;6085560;23;20389;-91
2023/06/06 09:07:33;;;;;;;5.30;4.80;;;;;;;;;;6082767;23;20389;-91
2023/06/06 09:10:00;;;;;;;5.90;4.23;;;;;;;;;;6110227;23;20672;-93
2023/06/06 09:12:26;;;;;;;5.10;4.00;;;;;;;;;;6083144;23;20525;-92
2023/06/06 09:14:52;;;;;;;5.30;3.90;;;;;;;;;;6082547;23;20408;-93
2023/06/06 09:17:18;;;;;;;6.97;4.40;;;;;;;;;;6114683;23;20465;-93
2023/06/06 09:19:45;;;;;;;6.47;5.20;;;;;;;;;;6085891;23;20404;-93
2023/06/06 09:22:12;;;;;;;7.43;4.47;;;;;;;;;;6090203;23;20389;-92
2023/06/06 09:24:44;;;;;;;5.40;4.70;;;;;;;;;;6085939;23;20423;-94
2023/06/06 09:27:31;;;;;;;6.20;4.27;;;;;;;;;;6084505;23;20366;-92
2023/06/06 09:29:57;;;;;;;5.60;4.60;;;;;;;;;;6107626;23;20417;-93
2023/06/06 09:32:29;;;;;;;7.20;4.03;;;;;;;;;;6086412;23;20422;-92
2023/06/06 09:35:05;;;;;;;5.20;4.53;;;;;;;;;;6107682;23;20417;-92
2023/06/06 09:37:31;;;;;;;5.20;4.50;;;;;;;;;;6086001;23;20370;-92
2023/06/06 09:40:11;;;;;;;6.90;3.83;;;;;;;;;;6084060;23;20433;-91
2023/06/06 09:42:38;;;;;;;10.20;4.43;;;;;;;;;;6084521;23;20605;-92
2023/06/06 09:45:14;;;;;;;5.37;4.17;;;;;;;;;;6083684;23;20381;-92
2023/06/06 09:48:06;;;;;;;6.23;4.30;;;;;;;;;;6116913;23;20365;-92
2023/06/06 09:50:32;;;;;;;7.53;4.07;;;;;;;;;;6118216;23;20389;-93
2023/06/06 09:52:58;;;;;;;5.60;4.30;;;;;;;;;;6093752;23;20459;-92
2023/06/06 09:55:27;;;;;;;5.73;4.70;;;;;;;;;;6089405;23;20390;-92
2023/06/06 09:57:53;;;;;;;6.40;4.73;;;;;;;;;;6086799;23;20449;-92
2023/06/06 10:00:20;;;;;;;6.53;4.40;;;;;;;;;;6085336;23;20397;-91
2023/06/06 10:02:48;;;;;;;6.13;3.97;;;;;;;;;;6110464;23;20374;-92
2023/06/06 10:05:16;;;;;;;5.43;4.93;;;;;;;;;;6085417;23;20401;-92
2023/06/06 10:07:45;;;;;;;5.00;3.73;;;;;;;;;;6110152;23;20390;-92
2023/06/06 10:10:14;;;;;;;6.07;4.50;;;;;;;;;;6083455;23;20422;-92
2023/06/06 10:12:41;;;;;;;4.97;4.40;;;;;;;;;;6084953;23;20426;-92
2023/06/06 10:15:13;;;;;;;6.50;4.27;;;;;;;;;;6084551;23;20442;-91
2023/06/06 10:17:56;;;;;;;4.83;4.10;;;;;;;;;;6110294;23;20402;-92
2023/06/06 10:20:22;;;;;;;4.83;3.93;;;;;;;;;;6082276;23;20472;-91
2023/06/06 10:22:48;;;;;;;6.93;4.30;;;;;;;;;;6083172;23;20370;-92
2023/06/06 10:25:14;;;;;;;6.40;5.17;;;;;;;;;;6082482;23;20376;-91
2023/06/06 10:27:58;;;;;;;7.60;4.90;;;;;;;;;;6081399;23;20378;-91
2023/06/06 10:30:43;;;;;;;4.93;4.43;;;;;;;;;;6106920;23;20380;-92
2023/06/06 10:33:13;;;;;;;4.83;4.40;;;;;;;;;;6105777;23;20405;-92
2023/06/06 10:35:40;;;;;;;5.20;4.40;;;;;;;;;;6083756;23;20415;-91
2023/06/06 10:38:08;;;;;;;5.70;4.17;;;;;;;;;;6107622;23;20473;-91
2023/06/06 10:40:40;;;;;;;7.27;5.03;;;;;;;;;;6080544;23;20460;-92
2023/06/06 10:43:06;;;;;;;5.00;4.30;;;;;;;;;;6080376;23;20444;-90
2023/06/06 10:45:40;;;;;;;4.93;4.37;;;;;;;;;;6079331;23;20429;-92
2023/06/06 10:48:06;;;;;;;5.60;4.17;;;;;;;;;;6079890;23;20385;-93
2023/06/06 10:50:32;;;;;;;5.33;4.33;;;;;;;;;;6080777;23;20953;-91
2023/06/06 10:53:05;;;;;;;5.97;4.50;;;;;;;;;;6081851;23;20429;-94
2023/06/06 10:55:30;;;;;;;5.17;4.60;;;;;;;;;;6081351;23;20378;-91
2023/06/06 10:58:16;;;;;;;7.03;4.07;;;;;;;;;;6128900;23;20963;-91
2023/06/06 11:00:42;;;;;;;6.30;4.77;;;;;;;;;;6101657;23;20430;-92
2023/06/06 11:03:09;;;;;;;6.73;4.20;;;;;;;;;;6081649;23;20721;-92
2023/06/06 11:05:54;;;;;;;8.13;5.23;;;;;;;;;;6082690;23;20386;-92
2023/06/06 11:08:31;;;;;;;4.53;4.10;;;;;;;;;;6109721;23;20417;-92
2023/06/06 11:11:15;;;;;;;8.23;5.67;;;;;;;;;;6081309;23;20373;-92
2023/06/06 11:13:51;;;;;;;5.60;4.53;;;;;;;;;;6105750;23;20421;-92
2023/06/06 11:16:26;;;;;;;6.33;4.87;;;;;;;;;;6082558;23;20408;-92
2023/06/06 11:18:52;;;;;;;4.53;4.00;;;;;;;;;;6082549;23;20477;-93
2023/06/06 11:21:18;;;;;;;6.50;5.60;;;;;;;;;;6081814;23;20382;-92
2023/06/06 11:23:45;;;;;;;8.20;4.90;;;;;;;;;;6082816;23;20386;-92
2023/06/06 11:26:10;;;;;;;7.10;4.83;;;;;;;;;;6083419;23;20412;-92
2023/06/06 11:28:37;;;;;;;5.57;4.83;;;;;;;;;;6084522;23;20385;-91
2023/06/06 11:31:04;;;;;;;5.30;4.77;;;;;;;;;;6084203;23;20453;-92
2023/06/06 11:33:30;;;;;;;4.90;4.30;;;;;;;;;;6082155;23;20493;-91
2023/06/06 11:35:56;;;;;;;5.23;4.73;;;;;;;;;;6081741;23;20386;-92
2023/06/06 11:38:22;;;;;;;8.13;4.13;;;;;;;;;;6081595;23;20374;-93
2023/06/06 11:40:48;;;;;;;4.17;3.77;;;;;;;;;;6086609;23;20158;-92
2023/06/06 11:43:14;;;;;;;5.67;4.47;;;;;;;;;;6082235;23;20434;-92
2023/06/06 11:45:40;;;;;;;6.60;5.00;;;;;;;;;;6084174;23;20417;-93
2023/06/06 11:48:27;;;;;;;7.10;4.40;;;;;;;;;;6081690;23;20394;-90
2023/06/06 11:50:53;;;;;;;4.77;4.27;;;;;;;;;;6107131;23;20389;-92
2023/06/06 11:53:29;;;;;;;6.67;4.27;;;;;;;;;;6079280;23;20509;-92
2023/06/06 11:55:55;;;;;;;7.50;4.03;;;;;;;;;;6079494;23;20449;-91
2023/06/06 11:58:21;;;;;;;4.83;4.30;;;;;;;;;;6078187;23;20398;-93
2023/06/06 12:00:47;;;;;;;4.23;3.80;;;;;;;;;;6081753;23;20441;-93
2023/06/06 12:03:14;;;;;;;4.33;3.70;;;;;;;;;;6079150;23;20506;-92
2023/06/06 12:05:41;;;;;;;4.83;3.53;;;;;;;;;;6079659;23;21010;-91
2023/06/06 12:08:07;;;;;;;4.20;3.80;;;;;;;;;;6078348;23;20425;-93
2023/06/06 12:10:33;;;;;;;5.10;4.60;;;;;;;;;;6078411;23;20401;-92
2023/06/06 12:12:59;;;;;;;4.80;4.30;;;;;;;;;;6080627;23;20549;-91
2023/06/06 12:15:28;;;;;;;6.03;4.10;;;;;;;;;;6084312;23;20778;-91
2023/06/06 12:18:03;;;;;;;4.63;4.10;;;;;;;;;;6081161;23;20402;-94
2023/06/06 12:20:37;;;;;;;4.30;3.67;;;;;;;;;;6090366;23;20388;-96
2023/06/06 12:23:09;;;;;;;5.23;4.73;;;;;;;;;;6047214;23;20388;-96
2023/06/06 12:25:36;;;;;;;4.80;4.30;;;;;;;;;;6118132;23;20404;-96
2023/06/06 12:28:09;;;;;;;5.00;4.50;;;;;;;;;;6095320;23;20386;-95
2023/06/06 12:30:36;;;;;;;5.10;4.07;;;;;;;;;;6085717;23;20938;-90
2023/06/06 12:33:02;;;;;;;4.80;4.30;;;;;;;;;;6080339;23;20448;-91
2023/06/06 12:35:28;;;;;;;4.50;3.80;;;;;;;;;;6081370;23;20382;-92
2023/06/06 12:37:55;;;;;;;5.47;4.97;;;;;;;;;;6082049;23;20385;-92
2023/06/06 12:40:23;;;;;;;4.50;4.00;;;;;;;;;;6083593;23;20386;-92
2023/06/06 12:42:55;;;;;;;5.60;4.57;;;;;;;;;;6082412;23;20413;-91
2023/06/06 12:45:22;;;;;;;7.53;4.93;;;;;;;;;;6103720;23;20413;-91
2023/06/06 12:47:50;;;;;;;9.30;4.53;;;;;;;;;;6080519;23;20394;-91
2023/06/06 12:50:16;;;;;;;4.00;3.60;;;;;;;;;;6084600;23;20382;-91
2023/06/06 12:52:42;;;;;;;4.60;4.03;;;;;;;;;;6081467;23;20434;-90
2023/06/06 12:55:08;;;;;;;4.63;4.10;;;;;;;;;;6079241;23;20529;-92
2023/06/06 12:57:34;;;;;;;5.37;4.87;;;;;;;;;;6101376;23;20373;-91
2023/06/06 13:00:00;;;;;;;5.20;4.40;;;;;;;;;;6078369;23;20401;-92
2023/06/06 13:02:26;;;;;;;4.40;4.00;;;;;;;;;;6078490;23;20380;-92
2023/06/06 13:04:52;;;;;;;5.87;4.50;;;;;;;;;;6080565;23;20374;-90
2023/06/06 13:07:18;;;;;;;5.27;4.27;;;;;;;;;;6081426;23;20390;-91
2023/06/06 13:09:44;;;;;;;5.20;4.10;;;;;;;;;;6082396;23;20430;-92
2023/06/06 13:12:10;;;;;;;5.90;4.23;;;;;;;;;;6080766;23;20422;-92
2023/06/06 13:14:39;;;;;;;6.23;4.50;;;;;;;;;;6080410;23;20778;-92
2023/06/06 13:17:05;;;;;;;5.10;4.60;;;;;;;;;;6082708;23;20417;-90
2023/06/06 13:19:32;;;;;;;5.40;4.60;;;;;;;;;;6046432;23;20451;-93
2023/06/06 13:21:58;;;;;;;6.17;4.10;;;;;;;;;;6027585;23;20481;-89
2023/06/06 13:24:24;;;;;;;4.80;4.10;;;;;;;;;;6024260;23;20403;-90
2023/06/06 13:26:50;;;;;;;5.70;4.50;;;;;;;;;;6022850;23;20755;-91
2023/06/06 13:29:16;;;;;;;5.60;4.93;;;;;;;;;;6023081;23;20387;-90
2023/06/06 13:31:43;;;;;;;5.13;4.63;;;;;;;;;;6024811;23;21158;-93
2023/06/06 13:34:10;;;;;;;6.37;4.57;;;;;;;;;;6024330;23;20414;-92
2023/06/06 13:36:36;;;;;;;4.60;4.20;;;;;;;;;;6025350;23;20405;-91
2023/06/06 13:39:04;;;;;;;4.40;4.00;;;;;;;;;;6047823;23;20417;-92
2023/06/06 13:41:30;;;;;;;5.30;4.80;;;;;;;;;;6023796;23;20384;-91
2023/06/06 13:43:56;;;;;;;6.00;5.13;;;;;;;;;;6021928;23;20411;-90
2023/06/06 13:46:22;;;;;;;5.40;4.77;;;;;;;;;;6020698;23;20412;-91
2023/06/06 13:48:49;;;;;;;6.20;4.60;;;;;;;;;;6023156;23;20406;-91
2023/06/06 13:51:18;;;;;;;5.60;4.70;;;;;;;;;;6075013;23;20437;-90
2023/06/06 13:53:44;;;;;;;5.53;4.80;;;;;;;;;;6082143;23;20406;-90
2023/06/06 13:56:10;;;;;;;5.03;4.13;;;;;;;;;;6080627;23;20716;-91
2023/06/06 13:58:50;;;;;;;5.63;4.50;;;;;;;;;;6081498;23;20431;-90
2023/06/06 14:01:20;;;;;;;5.33;4.83;;;;;;;;;;6084113;23;20389;-91
2023/06/06 14:03:46;;;;;;;7.50;4.37;;;;;;;;;;6080725;23;20484;-92
2023/06/06 14:06:12;;;;;;;5.13;4.63;;;;;;;;;;6079785;23;20390;-91
2023/06/06 14:08:38;;;;;;;10.07;4.03;;;;;;;;;;6081209;23;20454;-91
2023/06/06 14:11:09;;;;;;;6.00;4.80;;;;;;;;;;6081836;23;20401;-91
2023/06/06 14:13:36;;;;;;;4.90;4.33;;;;;;;;;;6085081;23;20430;-93
2023/06/06 14:16:02;;;;;;;6.23;5.27;;;;;;;;;;6082017;23;20394;-94
2023/06/06 14:18:27;;;;;;;5.43;4.90;;;;;;;;;;6081643;23;20445;-94
2023/06/06 14:21:10;;;;;;;6.03;4.90;;;;;;;;;;6081833;23;20445;-93
2023/06/06 14:23:42;;;;;;;4.93;4.43;;;;;;;;;;6086990;23;20465;-93
2023/06/06 14:26:08;;;;;;;5.03;4.50;;;;;;;;;;6082318;23;20389;-91
2023/06/06 14:28:34;;;;;;;6.60;4.90;;;;;;;;;;6082907;23;20388;-92
2023/06/06 14:31:00;;;;;;;5.03;4.60;;;;;;;;;;6080772;23;20861;-93
2023/06/06 14:33:26;;;;;;;5.20;4.70;;;;;;;;;;6082504;23;20449;-91
2023/06/06 14:35:52;;;;;;;5.20;4.70;;;;;;;;;;6082047;23;20381;-91
2023/06/06 14:38:18;;;;;;;6.10;4.97;;;;;;;;;;6084489;23;20377;-92
2023/06/06 14:40:45;;;;;;;6.37;5.40;;;;;;;;;;6082100;23;20385;-91
2023/06/06 14:43:11;;;;;;;5.77;4.53;;;;;;;;;;6081355;23;20389;-92
2023/06/06 14:45:37;;;;;;;4.60;4.10;;;;;;;;;;6078982;23;20454;-90